sensor_id;sensor_type;location;lat;lon;timestamp;temperature;humidity
37678;DHT22;23517;50.390;8.616;2023-04-15T00:01:09;4.40;59.90
37678;DHT22;23517;50.390;8.616;2023-04-15T00:03:37;4.40;60.00
37678;DHT22;23517;50.390;8.616;2023-04-15T00:06:04;4.40;60.10
37678;DHT22;23517;50.390;8.616;2023-04-15T00:08:31;4.30;60.70
37678;DHT22;23517;50.390;8.616;2023-04-15T00:10:58;4.30;60.70
37678;DHT22;23517;50.390;8.616;2023-04-15T00:13:28;4.40;60.70
37678;DHT22;23517;50.390;8.616;2023-04-15T00:15:55;4.30;61.30
37678;DHT22;23517;50.390;8.616;2023-04-15T00:18:23;4.30;61.10
37678;DHT22;23517;50.390;8.616;2023-04-15T00:20:50;4.30;60.70
37678;DHT22;23517;50.390;8.616;2023-04-15T00:23:17;4.30;60.70
37678;DHT22;23517;50.390;8.616;2023-04-15T00:25:44;4.30;60.70
37678;DHT22;23517;50.390;8.616;2023-04-15T00:28:11;4.20;60.70
37678;DHT22;23517;50.390;8.616;2023-04-15T00:30:37;4.20;60.30
37678;DHT22;23517;50.390;8.616;2023-04-15T00:33:04;4.10;60.50
37678;DHT22;23517;50.390;8.616;2023-04-15T00:35:32;4.10;61.00
37678;DHT22;23517;50.390;8.616;2023-04-15T00:37:59;4.10;61.40
37678;DHT22;23517;50.390;8.616;2023-04-15T00:40:25;4.10;61.60
37678;DHT22;23517;50.390;8.616;2023-04-15T00:42:53;4.10;62.00
37678;DHT22;23517;50.390;8.616;2023-04-15T00:45:21;4.00;62.70
37678;DHT22;23517;50.390;8.616;2023-04-15T00:47:47;4.10;62.80
37678;DHT22;23517;50.390;8.616;2023-04-15T00:50:14;4.00;63.60
37678;DHT22;23517;50.390;8.616;2023-04-15T00:52:41;4.10;62.90
37678;DHT22;23517;50.390;8.616;2023-04-15T00:55:08;4.10;62.60
37678;DHT22;23517;50.390;8.616;2023-04-15T00:57:35;4.10;62.90
37678;DHT22;23517;50.390;8.616;2023-04-15T01:00:03;4.10;62.10
37678;DHT22;23517;50.390;8.616;2023-04-15T01:02:34;4.10;62.30
37678;DHT22;23517;50.390;8.616;2023-04-15T01:05:02;4.10;62.20
37678;DHT22;23517;50.390;8.616;2023-04-15T01:07:30;4.00;62.30
37678;DHT22;23517;50.390;8.616;2023-04-15T01:09:58;4.00;63.30
37678;DHT22;23517;50.390;8.616;2023-04-15T01:12:26;3.90;63.80
37678;DHT22;23517;50.390;8.616;2023-04-15T01:14:53;3.90;63.60
37678;DHT22;23517;50.390;8.616;2023-04-15T01:17:20;3.90;63.30
37678;DHT22;23517;50.390;8.616;2023-04-15T01:19:47;3.90;64.30
37678;DHT22;23517;50.390;8.616;2023-04-15T01:22:26;4.00;64.40
37678;DHT22;23517;50.390;8.616;2023-04-15T01:25:11;4.00;63.90
37678;DHT22;23517;50.390;8.616;2023-04-15T01:27:40;3.90;62.10
37678;DHT22;23517;50.390;8.616;2023-04-15T01:30:08;3.80;63.50
37678;DHT22;23517;50.390;8.616;2023-04-15T01:32:39;3.80;63.90
37678;DHT22;23517;50.390;8.616;2023-04-15T01:35:05;3.80;63.90
37678;DHT22;23517;50.390;8.616;2023-04-15T01:37:33;3.90;63.90
37678;DHT22;23517;50.390;8.616;2023-04-15T01:40:00;3.90;63.70
37678;DHT22;23517;50.390;8.616;2023-04-15T01:42:27;3.90;64.20
37678;DHT22;23517;50.390;8.616;2023-04-15T01:44:54;3.90;63.70
37678;DHT22;23517;50.390;8.616;2023-04-15T01:47:21;3.90;62.90
37678;DHT22;23517;50.390;8.616;2023-04-15T01:49:47;3.80;63.30
37678;DHT22;23517;50.390;8.616;2023-04-15T01:52:14;3.70;63.70
37678;DHT22;23517;50.390;8.616;2023-04-15T01:54:41;3.70;63.50
37678;DHT22;23517;50.390;8.616;2023-04-15T01:57:07;3.70;63.40
37678;DHT22;23517;50.390;8.616;2023-04-15T01:59:35;3.60;63.70
37678;DHT22;23517;50.390;8.616;2023-04-15T02:02:03;3.50;64.40
37678;DHT22;23517;50.390;8.616;2023-04-15T02:04:31;3.40;65.50
37678;DHT22;23517;50.390;8.616;2023-04-15T02:06:58;3.50;65.40
37678;DHT22;23517;50.390;8.616;2023-04-15T02:09:25;3.50;64.50
37678;DHT22;23517;50.390;8.616;2023-04-15T02:11:52;3.50;64.60
37678;DHT22;23517;50.390;8.616;2023-04-15T02:14:22;3.50;64.80
37678;DHT22;23517;50.390;8.616;2023-04-15T02:16:48;3.50;65.10
37678;DHT22;23517;50.390;8.616;2023-04-15T02:19:15;3.50;65.70
37678;DHT22;23517;50.390;8.616;2023-04-15T02:21:42;3.50;65.60
37678;DHT22;23517;50.390;8.616;2023-04-15T02:24:08;3.60;65.50
37678;DHT22;23517;50.390;8.616;2023-04-15T02:26:35;3.60;65.40
37678;DHT22;23517;50.390;8.616;2023-04-15T02:29:02;3.70;65.20
37678;DHT22;23517;50.390;8.616;2023-04-15T02:31:29;3.60;63.90
37678;DHT22;23517;50.390;8.616;2023-04-15T02:33:56;3.60;63.90
37678;DHT22;23517;50.390;8.616;2023-04-15T02:36:22;3.60;64.20
37678;DHT22;23517;50.390;8.616;2023-04-15T02:38:49;3.50;63.70
37678;DHT22;23517;50.390;8.616;2023-04-15T02:41:16;3.40;64.10
37678;DHT22;23517;50.390;8.616;2023-04-15T02:43:43;3.30;65.10
37678;DHT22;23517;50.390;8.616;2023-04-15T02:46:09;3.30;64.10
37678;DHT22;23517;50.390;8.616;2023-04-15T02:48:40;3.20;64.60
37678;DHT22;23517;50.390;8.616;2023-04-15T02:51:14;3.20;65.10
37678;DHT22;23517;50.390;8.616;2023-04-15T02:53:42;3.20;65.00
37678;DHT22;23517;50.390;8.616;2023-04-15T02:56:08;3.20;64.30
37678;DHT22;23517;50.390;8.616;2023-04-15T02:58:35;3.20;64.50
37678;DHT22;23517;50.390;8.616;2023-04-15T03:01:02;3.20;65.60
37678;DHT22;23517;50.390;8.616;2023-04-15T03:03:28;3.20;65.40
37678;DHT22;23517;50.390;8.616;2023-04-15T03:05:55;3.20;64.90
37678;DHT22;23517;50.390;8.616;2023-04-15T03:08:22;3.10;65.60
37678;DHT22;23517;50.390;8.616;2023-04-15T03:10:48;3.10;65.40
37678;DHT22;23517;50.390;8.616;2023-04-15T03:13:18;3.20;65.20
37678;DHT22;23517;50.390;8.616;2023-04-15T03:15:47;3.20;64.90
37678;DHT22;23517;50.390;8.616;2023-04-15T03:18:14;3.10;65.60
37678;DHT22;23517;50.390;8.616;2023-04-15T03:20:43;3.10;66.30
37678;DHT22;23517;50.390;8.616;2023-04-15T03:23:09;3.20;66.40
37678;DHT22;23517;50.390;8.616;2023-04-15T03:25:36;3.20;66.20
37678;DHT22;23517;50.390;8.616;2023-04-15T03:28:03;3.20;66.00
37678;DHT22;23517;50.390;8.616;2023-04-15T03:30:29;3.30;66.70
37678;DHT22;23517;50.390;8.616;2023-04-15T03:32:56;3.30;66.50
37678;DHT22;23517;50.390;8.616;2023-04-15T03:35:23;3.30;66.80
37678;DHT22;23517;50.390;8.616;2023-04-15T03:37:50;3.30;66.60
37678;DHT22;23517;50.390;8.616;2023-04-15T03:40:17;3.30;66.80
37678;DHT22;23517;50.390;8.616;2023-04-15T03:42:43;3.30;66.80
37678;DHT22;23517;50.390;8.616;2023-04-15T03:45:10;3.20;65.90
37678;DHT22;23517;50.390;8.616;2023-04-15T03:47:37;3.20;66.40
37678;DHT22;23517;50.390;8.616;2023-04-15T03:50:04;3.20;66.30
37678;DHT22;23517;50.390;8.616;2023-04-15T03:52:31;3.20;66.40
37678;DHT22;23517;50.390;8.616;2023-04-15T03:54:57;3.20;66.50
37678;DHT22;23517;50.390;8.616;2023-04-15T03:57:24;3.20;66.40
37678;DHT22;23517;50.390;8.616;2023-04-15T03:59:51;3.20;66.40
37678;DHT22;23517;50.390;8.616;2023-04-15T04:02:17;3.20;66.40
37678;DHT22;23517;50.390;8.616;2023-04-15T04:04:44;3.20;66.40
37678;DHT22;23517;50.390;8.616;2023-04-15T04:07:15;3.10;66.20
37678;DHT22;23517;50.390;8.616;2023-04-15T04:09:42;3.00;66.30
37678;DHT22;23517;50.390;8.616;2023-04-15T04:12:10;3.00;67.00
37678;DHT22;23517;50.390;8.616;2023-04-15T04:14:37;3.10;66.90
37678;DHT22;23517;50.390;8.616;2023-04-15T04:17:03;3.10;66.40
37678;DHT22;23517;50.390;8.616;2023-04-15T04:19:30;3.10;66.80
37678;DHT22;23517;50.390;8.616;2023-04-15T04:21:57;3.10;66.50
37678;DHT22;23517;50.390;8.616;2023-04-15T04:24:31;3.20;66.40
37678;DHT22;23517;50.390;8.616;2023-04-15T04:26:58;3.20;66.40
37678;DHT22;23517;50.390;8.616;2023-04-15T04:29:24;3.20;66.80
37678;DHT22;23517;50.390;8.616;2023-04-15T04:31:51;3.20;67.10
37678;DHT22;23517;50.390;8.616;2023-04-15T04:34:18;3.10;67.00
37678;DHT22;23517;50.390;8.616;2023-04-15T04:36:44;3.10;68.30
37678;DHT22;23517;50.390;8.616;2023-04-15T04:39:11;3.10;69.50
37678;DHT22;23517;50.390;8.616;2023-04-15T04:41:38;3.10;70.10
37678;DHT22;23517;50.390;8.616;2023-04-15T04:44:04;3.20;71.00
37678;DHT22;23517;50.390;8.616;2023-04-15T04:46:31;3.20;71.50
37678;DHT22;23517;50.390;8.616;2023-04-15T04:48:57;3.30;71.50
37678;DHT22;23517;50.390;8.616;2023-04-15T04:51:24;3.50;71.30
37678;DHT22;23517;50.390;8.616;2023-04-15T04:53:53;3.50;71.50
37678;DHT22;23517;50.390;8.616;2023-04-15T04:56:19;3.60;71.40
37678;DHT22;23517;50.390;8.616;2023-04-15T04:58:46;3.80;70.90
37678;DHT22;23517;50.390;8.616;2023-04-15T05:01:13;3.80;69.00
37678;DHT22;23517;50.390;8.616;2023-04-15T05:03:40;3.80;69.90
37678;DHT22;23517;50.390;8.616;2023-04-15T05:06:07;3.90;70.30
37678;DHT22;23517;50.390;8.616;2023-04-15T05:08:34;4.00;69.40
37678;DHT22;23517;50.390;8.616;2023-04-15T05:11:01;4.00;69.20
37678;DHT22;23517;50.390;8.616;2023-04-15T05:13:29;4.00;68.80
37678;DHT22;23517;50.390;8.616;2023-04-15T05:15:55;4.00;69.20
37678;DHT22;23517;50.390;8.616;2023-04-15T05:18:22;4.10;68.80
37678;DHT22;23517;50.390;8.616;2023-04-15T05:20:48;4.20;68.10
37678;DHT22;23517;50.390;8.616;2023-04-15T05:23:15;4.30;67.50
37678;DHT22;23517;50.390;8.616;2023-04-15T05:25:43;4.40;67.10
37678;DHT22;23517;50.390;8.616;2023-04-15T05:28:09;4.50;65.50
37678;DHT22;23517;50.390;8.616;2023-04-15T05:30:36;4.50;65.60
37678;DHT22;23517;50.390;8.616;2023-04-15T05:33:03;4.60;64.80
37678;DHT22;23517;50.390;8.616;2023-04-15T05:35:30;4.60;64.80
37678;DHT22;23517;50.390;8.616;2023-04-15T05:37:56;4.60;65.20
37678;DHT22;23517;50.390;8.616;2023-04-15T05:40:23;4.60;65.30
37678;DHT22;23517;50.390;8.616;2023-04-15T05:42:50;4.60;65.50
37678;DHT22;23517;50.390;8.616;2023-04-15T05:45:17;4.60;66.90
37678;DHT22;23517;50.390;8.616;2023-04-15T05:47:44;4.80;66.80
37678;DHT22;23517;50.390;8.616;2023-04-15T05:50:11;4.90;66.10
37678;DHT22;23517;50.390;8.616;2023-04-15T05:52:38;5.00;66.10
37678;DHT22;23517;50.390;8.616;2023-04-15T05:55:06;5.10;66.20
37678;DHT22;23517;50.390;8.616;2023-04-15T05:57:32;5.20;65.20
37678;DHT22;23517;50.390;8.616;2023-04-15T05:59:59;5.30;64.90
37678;DHT22;23517;50.390;8.616;2023-04-15T06:02:26;5.40;64.70
37678;DHT22;23517;50.390;8.616;2023-04-15T06:04:53;5.40;64.00
37678;DHT22;23517;50.390;8.616;2023-04-15T06:07:20;5.40;65.10
37678;DHT22;23517;50.390;8.616;2023-04-15T06:09:46;5.50;64.80
37678;DHT22;23517;50.390;8.616;2023-04-15T06:12:14;5.70;64.20
37678;DHT22;23517;50.390;8.616;2023-04-15T06:14:41;5.90;64.40
37678;DHT22;23517;50.390;8.616;2023-04-15T06:17:08;6.00;63.40
37678;DHT22;23517;50.390;8.616;2023-04-15T06:19:34;6.20;63.00
37678;DHT22;23517;50.390;8.616;2023-04-15T06:22:04;6.30;62.40
37678;DHT22;23517;50.390;8.616;2023-04-15T06:24:33;6.40;62.50
37678;DHT22;23517;50.390;8.616;2023-04-15T06:27:02;6.60;60.70
37678;DHT22;23517;50.390;8.616;2023-04-15T06:29:28;6.70;60.90
37678;DHT22;23517;50.390;8.616;2023-04-15T06:31:55;7.00;59.30
37678;DHT22;23517;50.390;8.616;2023-04-15T06:34:22;7.30;58.10
37678;DHT22;23517;50.390;8.616;2023-04-15T06:36:49;7.50;56.10
37678;DHT22;23517;50.390;8.616;2023-04-15T06:39:15;7.80;54.60
37678;DHT22;23517;50.390;8.616;2023-04-15T06:41:42;7.90;54.20
37678;DHT22;23517;50.390;8.616;2023-04-15T06:44:09;8.00;53.70
37678;DHT22;23517;50.390;8.616;2023-04-15T06:46:35;8.10;53.40
37678;DHT22;23517;50.390;8.616;2023-04-15T06:49:02;8.20;53.60
37678;DHT22;23517;50.390;8.616;2023-04-15T06:51:37;8.30;53.40
37678;DHT22;23517;50.390;8.616;2023-04-15T06:54:03;8.50;53.20
37678;DHT22;23517;50.390;8.616;2023-04-15T06:56:32;8.70;52.10
37678;DHT22;23517;50.390;8.616;2023-04-15T06:58:59;9.10;50.90
37678;DHT22;23517;50.390;8.616;2023-04-15T07:01:26;9.20;48.00
37678;DHT22;23517;50.390;8.616;2023-04-15T07:03:53;9.20;46.20
37678;DHT22;23517;50.390;8.616;2023-04-15T07:06:20;9.30;47.10
37678;DHT22;23517;50.390;8.616;2023-04-15T07:08:47;9.50;47.20
37678;DHT22;23517;50.390;8.616;2023-04-15T07:11:14;9.60;45.80
37678;DHT22;23517;50.390;8.616;2023-04-15T07:13:40;9.70;46.20
37678;DHT22;23517;50.390;8.616;2023-04-15T07:16:07;9.90;44.70
37678;DHT22;23517;50.390;8.616;2023-04-15T07:18:34;10.00;43.30
37678;DHT22;23517;50.390;8.616;2023-04-15T07:21:00;10.30;42.90
37678;DHT22;23517;50.390;8.616;2023-04-15T07:23:28;10.50;42.20
37678;DHT22;23517;50.390;8.616;2023-04-15T07:25:54;10.90;39.40
37678;DHT22;23517;50.390;8.616;2023-04-15T07:28:22;10.90;38.20
37678;DHT22;23517;50.390;8.616;2023-04-15T07:30:48;10.90;38.30
37678;DHT22;23517;50.390;8.616;2023-04-15T07:33:15;10.80;37.30
37678;DHT22;23517;50.390;8.616;2023-04-15T07:35:42;10.60;37.30
37678;DHT22;23517;50.390;8.616;2023-04-15T07:38:09;10.60;37.20
37678;DHT22;23517;50.390;8.616;2023-04-15T07:40:35;10.60;36.20
37678;DHT22;23517;50.390;8.616;2023-04-15T07:43:02;10.60;37.10
37678;DHT22;23517;50.390;8.616;2023-04-15T07:45:28;10.40;36.80
37678;DHT22;23517;50.390;8.616;2023-04-15T07:48:01;10.30;36.60
37678;DHT22;23517;50.390;8.616;2023-04-15T07:50:28;10.20;36.50
37678;DHT22;23517;50.390;8.616;2023-04-15T07:52:55;10.20;36.60
37678;DHT22;23517;50.390;8.616;2023-04-15T07:55:22;10.30;37.40
37678;DHT22;23517;50.390;8.616;2023-04-15T07:57:50;10.60;36.90
37678;DHT22;23517;50.390;8.616;2023-04-15T08:00:17;10.80;34.80
37678;DHT22;23517;50.390;8.616;2023-04-15T08:02:43;10.80;34.60
37678;DHT22;23517;50.390;8.616;2023-04-15T08:05:12;10.80;35.00
37678;DHT22;23517;50.390;8.616;2023-04-15T08:07:40;10.80;34.60
37678;DHT22;23517;50.390;8.616;2023-04-15T08:10:07;10.90;34.30
37678;DHT22;23517;50.390;8.616;2023-04-15T08:12:34;11.20;33.10
37678;DHT22;23517;50.390;8.616;2023-04-15T08:15:04;11.10;32.90
37678;DHT22;23517;50.390;8.616;2023-04-15T08:17:31;11.00;32.60
37678;DHT22;23517;50.390;8.616;2023-04-15T08:19:57;11.00;32.90
37678;DHT22;23517;50.390;8.616;2023-04-15T08:22:24;11.10;33.20
37678;DHT22;23517;50.390;8.616;2023-04-15T08:24:51;11.20;32.90
37678;DHT22;23517;50.390;8.616;2023-04-15T08:27:17;11.40;32.20
37678;DHT22;23517;50.390;8.616;2023-04-15T08:29:44;11.60;31.80
37678;DHT22;23517;50.390;8.616;2023-04-15T08:32:11;11.90;29.80
37678;DHT22;23517;50.390;8.616;2023-04-15T08:34:38;12.70;29.00
37678;DHT22;23517;50.390;8.616;2023-04-15T08:37:04;13.80;27.40
37678;DHT22;23517;50.390;8.616;2023-04-15T08:39:32;14.90;23.20
37678;DHT22;23517;50.390;8.616;2023-04-15T08:42:03;15.20;22.30
37678;DHT22;23517;50.390;8.616;2023-04-15T08:44:34;15.20;20.60
37678;DHT22;23517;50.390;8.616;2023-04-15T08:47:02;15.40;22.00
37678;DHT22;23517;50.390;8.616;2023-04-15T08:49:31;15.60;21.70
37678;DHT22;23517;50.390;8.616;2023-04-15T08:51:59;15.90;20.80
37678;DHT22;23517;50.390;8.616;2023-04-15T08:54:32;16.00;20.50
37678;DHT22;23517;50.390;8.616;2023-04-15T08:56:59;15.30;21.30
37678;DHT22;23517;50.390;8.616;2023-04-15T08:59:31;14.70;22.10
37678;DHT22;23517;50.390;8.616;2023-04-15T09:01:58;14.30;23.40
37678;DHT22;23517;50.390;8.616;2023-04-15T09:04:27;13.70;24.70
37678;DHT22;23517;50.390;8.616;2023-04-15T09:06:53;13.30;25.10
37678;DHT22;23517;50.390;8.616;2023-04-15T09:09:20;12.80;26.40
37678;DHT22;23517;50.390;8.616;2023-04-15T09:11:47;12.40;26.30
37678;DHT22;23517;50.390;8.616;2023-04-15T09:14:15;12.20;28.00
37678;DHT22;23517;50.390;8.616;2023-04-15T09:17:04;11.90;29.00
37678;DHT22;23517;50.390;8.616;2023-04-15T09:19:31;11.70;29.50
37678;DHT22;23517;50.390;8.616;2023-04-15T09:21:59;11.70;30.30
37678;DHT22;23517;50.390;8.616;2023-04-15T09:24:37;11.50;31.10
37678;DHT22;23517;50.390;8.616;2023-04-15T09:27:05;11.30;31.30
37678;DHT22;23517;50.390;8.616;2023-04-15T09:29:32;11.20;32.10
37678;DHT22;23517;50.390;8.616;2023-04-15T09:32:12;11.10;33.00
37678;DHT22;23517;50.390;8.616;2023-04-15T09:34:42;11.10;33.40
37678;DHT22;23517;50.390;8.616;2023-04-15T09:37:08;11.00;33.30
37678;DHT22;23517;50.390;8.616;2023-04-15T09:39:50;10.90;34.00
37678;DHT22;23517;50.390;8.616;2023-04-15T09:42:18;10.90;34.40
37678;DHT22;23517;50.390;8.616;2023-04-15T09:44:54;10.90;34.20
37678;DHT22;23517;50.390;8.616;2023-04-15T09:47:30;10.90;34.60
37678;DHT22;23517;50.390;8.616;2023-04-15T09:49:59;11.00;35.00
37678;DHT22;23517;50.390;8.616;2023-04-15T09:52:26;10.90;35.20
37678;DHT22;23517;50.390;8.616;2023-04-15T09:54:56;10.90;34.90
37678;DHT22;23517;50.390;8.616;2023-04-15T09:57:23;10.90;35.40
37678;DHT22;23517;50.390;8.616;2023-04-15T09:59:51;10.90;35.40
37678;DHT22;23517;50.390;8.616;2023-04-15T10:02:18;11.00;35.30
37678;DHT22;23517;50.390;8.616;2023-04-15T10:04:48;11.00;35.30
37678;DHT22;23517;50.390;8.616;2023-04-15T10:07:16;11.00;35.50
37678;DHT22;23517;50.390;8.616;2023-04-15T10:09:47;11.00;35.80
37678;DHT22;23517;50.390;8.616;2023-04-15T10:12:16;10.90;36.10
37678;DHT22;23517;50.390;8.616;2023-04-15T10:14:43;11.00;36.00
37678;DHT22;23517;50.390;8.616;2023-04-15T10:17:11;11.10;36.00
37678;DHT22;23517;50.390;8.616;2023-04-15T10:19:38;11.20;35.60
37678;DHT22;23517;50.390;8.616;2023-04-15T10:22:06;11.20;35.60
37678;DHT22;23517;50.390;8.616;2023-04-15T10:24:33;11.20;35.00
37678;DHT22;23517;50.390;8.616;2023-04-15T10:27:02;11.30;35.40
37678;DHT22;23517;50.390;8.616;2023-04-15T10:29:29;11.40;35.40
37678;DHT22;23517;50.390;8.616;2023-04-15T10:32:00;11.60;35.30
37678;DHT22;23517;50.390;8.616;2023-04-15T10:34:27;11.70;35.10
37678;DHT22;23517;50.390;8.616;2023-04-15T10:36:55;11.60;34.10
37678;DHT22;23517;50.390;8.616;2023-04-15T10:44:37;11.30;36.60
37678;DHT22;23517;50.390;8.616;2023-04-15T10:47:18;11.40;36.60
37678;DHT22;23517;50.390;8.616;2023-04-15T10:49:49;11.30;37.20
37678;DHT22;23517;50.390;8.616;2023-04-15T10:52:22;11.40;38.30
37678;DHT22;23517;50.390;8.616;2023-04-15T10:57:40;11.10;41.90
37678;DHT22;23517;50.390;8.616;2023-04-15T11:02:38;11.20;45.00
37678;DHT22;23517;50.390;8.616;2023-04-15T11:08:08;10.90;47.40
37678;DHT22;23517;50.390;8.616;2023-04-15T11:13:15;11.00;48.40
37678;DHT22;23517;50.390;8.616;2023-04-15T11:15:44;11.10;49.60
37678;DHT22;23517;50.390;8.616;2023-04-15T11:20:48;11.10;49.80
37678;DHT22;23517;50.390;8.616;2023-04-15T11:23:31;10.90;51.10
37678;DHT22;23517;50.390;8.616;2023-04-15T11:26:00;11.00;50.60
37678;DHT22;23517;50.390;8.616;2023-04-15T11:28:30;10.90;51.80
37678;DHT22;23517;50.390;8.616;2023-04-15T11:31:02;10.90;50.70
37678;DHT22;23517;50.390;8.616;2023-04-15T11:33:31;10.90;51.70
37678;DHT22;23517;50.390;8.616;2023-04-15T11:35:58;10.80;52.80
37678;DHT22;23517;50.390;8.616;2023-04-15T11:38:25;10.70;53.10
37678;DHT22;23517;50.390;8.616;2023-04-15T11:40:51;10.50;54.30
37678;DHT22;23517;50.390;8.616;2023-04-15T11:43:22;10.30;55.40
37678;DHT22;23517;50.390;8.616;2023-04-15T11:45:52;10.30;55.30
37678;DHT22;23517;50.390;8.616;2023-04-15T11:48:33;10.40;55.60
37678;DHT22;23517;50.390;8.616;2023-04-15T11:51:05;10.40;55.70
37678;DHT22;23517;50.390;8.616;2023-04-15T11:53:36;10.40;56.40
37678;DHT22;23517;50.390;8.616;2023-04-15T11:56:04;10.40;56.80
37678;DHT22;23517;50.390;8.616;2023-04-15T11:58:34;10.30;56.70
37678;DHT22;23517;50.390;8.616;2023-04-15T12:01:05;10.30;56.90
37678;DHT22;23517;50.390;8.616;2023-04-15T12:06:22;10.20;58.30
37678;DHT22;23517;50.390;8.616;2023-04-15T12:09:03;10.20;59.50
37678;DHT22;23517;50.390;8.616;2023-04-15T12:11:55;10.20;58.10
37678;DHT22;23517;50.390;8.616;2023-04-15T12:14:32;10.10;56.40
37678;DHT22;23517;50.390;8.616;2023-04-15T12:17:03;10.00;55.50
37678;DHT22;23517;50.390;8.616;2023-04-15T12:19:38;10.00;56.20
37678;DHT22;23517;50.390;8.616;2023-04-15T12:22:11;10.10;57.00
37678;DHT22;23517;50.390;8.616;2023-04-15T12:24:41;10.20;56.70
37678;DHT22;23517;50.390;8.616;2023-04-15T12:27:15;10.10;56.30
37678;DHT22;23517;50.390;8.616;2023-04-15T12:29:42;10.20;56.90
37678;DHT22;23517;50.390;8.616;2023-04-15T12:32:11;10.30;57.40
37678;DHT22;23517;50.390;8.616;2023-04-15T12:34:52;10.30;57.70
37678;DHT22;23517;50.390;8.616;2023-04-15T12:37:22;10.20;57.20
37678;DHT22;23517;50.390;8.616;2023-04-15T12:39:49;10.20;57.00
37678;DHT22;23517;50.390;8.616;2023-04-15T12:42:16;10.20;55.40
37678;DHT22;23517;50.390;8.616;2023-04-15T12:44:43;10.20;55.70
37678;DHT22;23517;50.390;8.616;2023-04-15T12:47:11;10.20;55.80
37678;DHT22;23517;50.390;8.616;2023-04-15T12:49:38;10.30;56.30
37678;DHT22;23517;50.390;8.616;2023-04-15T12:52:05;10.30;55.60
37678;DHT22;23517;50.390;8.616;2023-04-15T12:54:32;10.30;55.40
37678;DHT22;23517;50.390;8.616;2023-04-15T12:56:58;10.30;55.50
37678;DHT22;23517;50.390;8.616;2023-04-15T12:59:26;10.40;55.30
37678;DHT22;23517;50.390;8.616;2023-04-15T13:01:53;10.50;56.00
37678;DHT22;23517;50.390;8.616;2023-04-15T13:04:20;10.50;56.50
37678;DHT22;23517;50.390;8.616;2023-04-15T13:06:48;10.50;56.40
37678;DHT22;23517;50.390;8.616;2023-04-15T13:09:14;10.50;56.90
37678;DHT22;23517;50.390;8.616;2023-04-15T13:11:41;10.40;57.50
37678;DHT22;23517;50.390;8.616;2023-04-15T13:14:09;10.40;57.30
37678;DHT22;23517;50.390;8.616;2023-04-15T13:16:38;10.40;57.70
37678;DHT22;23517;50.390;8.616;2023-04-15T13:19:05;10.40;57.00
37678;DHT22;23517;50.390;8.616;2023-04-15T13:21:31;10.30;57.30
37678;DHT22;23517;50.390;8.616;2023-04-15T13:24:01;10.30;58.00
37678;DHT22;23517;50.390;8.616;2023-04-15T13:26:29;10.20;58.80
37678;DHT22;23517;50.390;8.616;2023-04-15T13:28:56;10.10;58.60
37678;DHT22;23517;50.390;8.616;2023-04-15T13:31:23;10.10;59.30
37678;DHT22;23517;50.390;8.616;2023-04-15T13:33:50;10.10;60.10
37678;DHT22;23517;50.390;8.616;2023-04-15T13:36:17;10.10;58.80
37678;DHT22;23517;50.390;8.616;2023-04-15T13:38:46;10.10;59.70
37678;DHT22;23517;50.390;8.616;2023-04-15T13:41:16;10.10;59.40
37678;DHT22;23517;50.390;8.616;2023-04-15T13:43:43;10.20;59.20
37678;DHT22;23517;50.390;8.616;2023-04-15T13:46:09;10.30;58.30
37678;DHT22;23517;50.390;8.616;2023-04-15T13:48:37;10.20;57.70
37678;DHT22;23517;50.390;8.616;2023-04-15T13:51:03;10.10;58.90
37678;DHT22;23517;50.390;8.616;2023-04-15T13:53:30;10.20;59.40
37678;DHT22;23517;50.390;8.616;2023-04-15T13:56:08;10.20;58.60
37678;DHT22;23517;50.390;8.616;2023-04-15T13:58:36;10.10;59.00
37678;DHT22;23517;50.390;8.616;2023-04-15T14:01:06;10.10;59.20
37678;DHT22;23517;50.390;8.616;2023-04-15T14:03:34;10.00;59.30
37678;DHT22;23517;50.390;8.616;2023-04-15T14:06:02;10.00;59.20
37678;DHT22;23517;50.390;8.616;2023-04-15T14:08:29;9.70;59.40
37678;DHT22;23517;50.390;8.616;2023-04-15T14:10:55;9.60;59.80
37678;DHT22;23517;50.390;8.616;2023-04-15T14:13:23;9.60;60.40
37678;DHT22;23517;50.390;8.616;2023-04-15T14:15:49;9.50;61.10
37678;DHT22;23517;50.390;8.616;2023-04-15T14:18:16;9.40;60.10
37678;DHT22;23517;50.390;8.616;2023-04-15T14:20:43;9.40;60.60
37678;DHT22;23517;50.390;8.616;2023-04-15T14:23:09;9.40;60.40
37678;DHT22;23517;50.390;8.616;2023-04-15T14:25:36;9.20;62.30
37678;DHT22;23517;50.390;8.616;2023-04-15T14:28:04;9.20;63.80
37678;DHT22;23517;50.390;8.616;2023-04-15T14:30:31;9.30;63.20
37678;DHT22;23517;50.390;8.616;2023-04-15T14:32:58;9.40;62.60
37678;DHT22;23517;50.390;8.616;2023-04-15T14:35:24;9.40;62.10
37678;DHT22;23517;50.390;8.616;2023-04-15T14:37:52;9.40;61.70
37678;DHT22;23517;50.390;8.616;2023-04-15T14:40:20;9.30;62.20
37678;DHT22;23517;50.390;8.616;2023-04-15T14:42:47;9.20;62.40
37678;DHT22;23517;50.390;8.616;2023-04-15T14:45:14;9.20;62.10
37678;DHT22;23517;50.390;8.616;2023-04-15T14:47:40;9.10;61.90
37678;DHT22;23517;50.390;8.616;2023-04-15T14:50:07;9.10;63.80
37678;DHT22;23517;50.390;8.616;2023-04-15T14:52:34;9.10;63.60
37678;DHT22;23517;50.390;8.616;2023-04-15T14:55:08;9.10;64.10
37678;DHT22;23517;50.390;8.616;2023-04-15T14:57:40;9.10;63.90
37678;DHT22;23517;50.390;8.616;2023-04-15T15:00:08;9.10;64.70
37678;DHT22;23517;50.390;8.616;2023-04-15T15:02:39;9.20;64.80
37678;DHT22;23517;50.390;8.616;2023-04-15T15:05:06;9.10;65.00
37678;DHT22;23517;50.390;8.616;2023-04-15T15:07:35;9.20;65.60
37678;DHT22;23517;50.390;8.616;2023-04-15T15:10:03;9.20;65.10
37678;DHT22;23517;50.390;8.616;2023-04-15T15:12:31;9.20;65.10
37678;DHT22;23517;50.390;8.616;2023-04-15T15:14:58;9.20;64.80
37678;DHT22;23517;50.390;8.616;2023-04-15T15:17:28;9.20;65.30
37678;DHT22;23517;50.390;8.616;2023-04-15T15:19:55;9.20;66.00
37678;DHT22;23517;50.390;8.616;2023-04-15T15:22:22;9.20;66.00
37678;DHT22;23517;50.390;8.616;2023-04-15T15:24:50;9.20;66.00
37678;DHT22;23517;50.390;8.616;2023-04-15T15:27:16;9.20;66.40
37678;DHT22;23517;50.390;8.616;2023-04-15T15:29:43;9.10;67.20
37678;DHT22;23517;50.390;8.616;2023-04-15T15:32:09;9.00;67.10
37678;DHT22;23517;50.390;8.616;2023-04-15T15:34:36;9.10;67.80
37678;DHT22;23517;50.390;8.616;2023-04-15T15:37:03;9.00;69.00
37678;DHT22;23517;50.390;8.616;2023-04-15T15:39:29;9.00;69.20
37678;DHT22;23517;50.390;8.616;2023-04-15T15:41:56;8.90;70.40
37678;DHT22;23517;50.390;8.616;2023-04-15T15:44:23;8.90;69.70
37678;DHT22;23517;50.390;8.616;2023-04-15T15:46:49;9.00;70.10
37678;DHT22;23517;50.390;8.616;2023-04-15T15:49:16;9.00;70.00
37678;DHT22;23517;50.390;8.616;2023-04-15T15:51:43;9.00;69.50
37678;DHT22;23517;50.390;8.616;2023-04-15T15:54:11;8.90;70.00
37678;DHT22;23517;50.390;8.616;2023-04-15T15:56:38;8.90;70.30
37678;DHT22;23517;50.390;8.616;2023-04-15T15:59:05;8.90;71.10
37678;DHT22;23517;50.390;8.616;2023-04-15T16:01:32;8.90;71.60
37678;DHT22;23517;50.390;8.616;2023-04-15T16:03:59;8.90;73.00
37678;DHT22;23517;50.390;8.616;2023-04-15T16:06:26;8.90;72.80